sensor_id;sensor_type;location;lat;lon;timestamp;temperature;humidity
7822;DHT22;3956;50.558;9.678;2022-11-20T00:02:11;-1.90;1.00
7822;DHT22;3956;50.558;9.678;2022-11-20T00:04:39;-1.90;1.00
7822;DHT22;3956;50.558;9.678;2022-11-20T00:07:15;-1.80;1.00
7822;DHT22;3956;50.558;9.678;2022-11-20T00:09:51;-1.80;1.00
7822;DHT22;3956;50.558;9.678;2022-11-20T00:12:20;-1.70;1.00
7822;DHT22;3956;50.558;9.678;2022-11-20T00:14:50;-1.90;1.00
7822;DHT22;3956;50.558;9.678;2022-11-20T00:17:19;-1.90;1.00
7822;DHT22;3956;50.558;9.678;2022-11-20T00:19:48;-1.90;1.00
7822;DHT22;3956;50.558;9.678;2022-11-20T00:22:16;-1.90;1.00
7822;DHT22;3956;50.558;9.678;2022-11-20T00:24:45;-1.80;1.00
7822;DHT22;3956;50.558;9.678;2022-11-20T00:27:47;-1.70;1.00
7822;DHT22;3956;50.558;9.678;2022-11-20T00:30:38;-1.70;1.00
7822;DHT22;3956;50.558;9.678;2022-11-20T00:33:07;-1.80;1.00
7822;DHT22;3956;50.558;9.678;2022-11-20T00:35:35;-1.80;1.00
7822;DHT22;3956;50.558;9.678;2022-11-20T00:38:04;-1.70;1.00
7822;DHT22;3956;50.558;9.678;2022-11-20T00:40:32;-1.70;1.00
7822;DHT22;3956;50.558;9.678;2022-11-20T00:43:02;-1.70;1.00
7822;DHT22;3956;50.558;9.678;2022-11-20T00:45:33;-1.70;1.00
7822;DHT22;3956;50.558;9.678;2022-11-20T00:48:08;-1.70;1.00
7822;DHT22;3956;50.558;9.678;2022-11-20T00:50:43;-1.60;1.00
7822;DHT22;3956;50.558;9.678;2022-11-20T00:53:14;-1.70;1.00
7822;DHT22;3956;50.558;9.678;2022-11-20T00:55:53;-1.60;1.00
7822;DHT22;3956;50.558;9.678;2022-11-20T00:58:22;-1.60;1.00
7822;DHT22;3956;50.558;9.678;2022-11-20T01:00:50;-1.70;1.00
7822;DHT22;3956;50.558;9.678;2022-11-20T01:03:20;-1.60;1.00
7822;DHT22;3956;50.558;9.678;2022-11-20T01:05:53;-1.50;1.00
7822;DHT22;3956;50.558;9.678;2022-11-20T01:08:21;-1.50;1.00
7822;DHT22;3956;50.558;9.678;2022-11-20T01:10:49;-1.40;1.00
7822;DHT22;3956;50.558;9.678;2022-11-20T01:13:17;-1.50;1.00
7822;DHT22;3956;50.558;9.678;2022-11-20T01:16:04;-1.40;1.00
7822;DHT22;3956;50.558;9.678;2022-11-20T01:18:38;-1.50;1.00
7822;DHT22;3956;50.558;9.678;2022-11-20T01:21:12;-1.40;1.00
7822;DHT22;3956;50.558;9.678;2022-11-20T01:23:41;-1.40;1.00
7822;DHT22;3956;50.558;9.678;2022-11-20T01:26:12;-1.30;1.00
7822;DHT22;3956;50.558;9.678;2022-11-20T01:28:42;-1.40;1.00
7822;DHT22;3956;50.558;9.678;2022-11-20T01:31:12;-1.20;1.00
7822;DHT22;3956;50.558;9.678;2022-11-20T01:33:43;-1.30;1.00
7822;DHT22;3956;50.558;9.678;2022-11-20T01:36:13;-1.10;1.00
7822;DHT22;3956;50.558;9.678;2022-11-20T01:38:44;-1.20;1.00
7822;DHT22;3956;50.558;9.678;2022-11-20T01:41:14;-1.10;1.00
7822;DHT22;3956;50.558;9.678;2022-11-20T01:44:04;-1.20;1.00
7822;DHT22;3956;50.558;9.678;2022-11-20T01:46:32;-1.40;1.00
7822;DHT22;3956;50.558;9.678;2022-11-20T01:49:05;-1.40;1.00
7822;DHT22;3956;50.558;9.678;2022-11-20T01:51:44;-1.50;1.00
7822;DHT22;3956;50.558;9.678;2022-11-20T01:54:18;-1.50;1.00
7822;DHT22;3956;50.558;9.678;2022-11-20T01:56:48;-1.40;1.00
7822;DHT22;3956;50.558;9.678;2022-11-20T01:59:23;-1.30;1.00
7822;DHT22;3956;50.558;9.678;2022-11-20T02:01:52;-1.30;1.00
7822;DHT22;3956;50.558;9.678;2022-11-20T02:04:23;-1.20;1.00
7822;DHT22;3956;50.558;9.678;2022-11-20T02:06:57;-1.20;1.00
7822;DHT22;3956;50.558;9.678;2022-11-20T02:09:29;-1.10;1.00
7822;DHT22;3956;50.558;9.678;2022-11-20T02:11:58;-0.90;1.00
7822;DHT22;3956;50.558;9.678;2022-11-20T02:14:28;-1.00;1.00
7822;DHT22;3956;50.558;9.678;2022-11-20T02:16:57;-1.00;1.00
7822;DHT22;3956;50.558;9.678;2022-11-20T02:19:29;-1.00;1.00
7822;DHT22;3956;50.558;9.678;2022-11-20T02:22:03;-0.90;1.00
7822;DHT22;3956;50.558;9.678;2022-11-20T02:24:36;-0.90;1.00
7822;DHT22;3956;50.558;9.678;2022-11-20T02:27:07;-1.00;1.00
7822;DHT22;3956;50.558;9.678;2022-11-20T02:29:40;-1.00;1.00
7822;DHT22;3956;50.558;9.678;2022-11-20T02:32:18;-1.00;1.00
7822;DHT22;3956;50.558;9.678;2022-11-20T02:34:46;-1.00;1.00
7822;DHT22;3956;50.558;9.678;2022-11-20T02:37:15;-1.00;1.00
7822;DHT22;3956;50.558;9.678;2022-11-20T02:39:47;-1.10;1.00
7822;DHT22;3956;50.558;9.678;2022-11-20T02:42:18;-1.10;1.00
7822;DHT22;3956;50.558;9.678;2022-11-20T02:44:46;-1.00;1.00
7822;DHT22;3956;50.558;9.678;2022-11-20T02:47:15;-1.10;1.00
7822;DHT22;3956;50.558;9.678;2022-11-20T02:49:43;-1.00;1.00
7822;DHT22;3956;50.558;9.678;2022-11-20T02:52:11;-0.90;1.00
7822;DHT22;3956;50.558;9.678;2022-11-20T02:54:40;-1.10;1.00
7822;DHT22;3956;50.558;9.678;2022-11-20T02:57:11;-1.00;1.00
7822;DHT22;3956;50.558;9.678;2022-11-20T02:59:40;-0.90;1.00
7822;DHT22;3956;50.558;9.678;2022-11-20T03:02:10;-0.90;1.00
7822;DHT22;3956;50.558;9.678;2022-11-20T03:04:39;-0.90;1.00
7822;DHT22;3956;50.558;9.678;2022-11-20T03:07:08;-0.90;1.00
7822;DHT22;3956;50.558;9.678;2022-11-20T03:09:36;-0.90;1.00
7822;DHT22;3956;50.558;9.678;2022-11-20T03:12:05;-1.10;1.00
7822;DHT22;3956;50.558;9.678;2022-11-20T03:14:36;-1.20;1.00
7822;DHT22;3956;50.558;9.678;2022-11-20T03:17:06;-1.10;1.00
7822;DHT22;3956;50.558;9.678;2022-11-20T03:19:35;-0.80;1.00
7822;DHT22;3956;50.558;9.678;2022-11-20T03:22:05;-0.90;1.00
7822;DHT22;3956;50.558;9.678;2022-11-20T03:24:45;-0.80;1.00
7822;DHT22;3956;50.558;9.678;2022-11-20T03:27:17;-0.90;1.00
7822;DHT22;3956;50.558;9.678;2022-11-20T03:29:47;-0.80;1.00
7822;DHT22;3956;50.558;9.678;2022-11-20T03:32:15;-0.90;1.00
7822;DHT22;3956;50.558;9.678;2022-11-20T03:34:43;-1.00;1.00
7822;DHT22;3956;50.558;9.678;2022-11-20T03:37:13;-0.90;1.00
7822;DHT22;3956;50.558;9.678;2022-11-20T03:39:41;-0.80;1.00
7822;DHT22;3956;50.558;9.678;2022-11-20T03:42:09;-1.00;1.00
7822;DHT22;3956;50.558;9.678;2022-11-20T03:45:03;-1.20;1.00
7822;DHT22;3956;50.558;9.678;2022-11-20T03:47:35;-1.10;1.00
7822;DHT22;3956;50.558;9.678;2022-11-20T03:50:04;-0.90;1.00
7822;DHT22;3956;50.558;9.678;2022-11-20T03:52:33;-0.80;1.00
7822;DHT22;3956;50.558;9.678;2022-11-20T03:55:01;-0.70;1.00
7822;DHT22;3956;50.558;9.678;2022-11-20T03:57:30;-0.90;1.00
7822;DHT22;3956;50.558;9.678;2022-11-20T03:59:59;-0.90;1.00
7822;DHT22;3956;50.558;9.678;2022-11-20T04:02:45;-0.80;1.00
7822;DHT22;3956;50.558;9.678;2022-11-20T04:05:14;-1.00;1.00
7822;DHT22;3956;50.558;9.678;2022-11-20T04:07:42;-0.80;1.00
7822;DHT22;3956;50.558;9.678;2022-11-20T04:10:13;-0.80;1.00
7822;DHT22;3956;50.558;9.678;2022-11-20T04:12:41;-0.80;1.00
7822;DHT22;3956;50.558;9.678;2022-11-20T04:15:12;-0.70;1.00
7822;DHT22;3956;50.558;9.678;2022-11-20T04:17:40;-0.70;1.00
7822;DHT22;3956;50.558;9.678;2022-11-20T04:20:11;-0.70;1.00
7822;DHT22;3956;50.558;9.678;2022-11-20T04:22:40;-0.60;1.00
7822;DHT22;3956;50.558;9.678;2022-11-20T04:25:08;-0.70;1.00
7822;DHT22;3956;50.558;9.678;2022-11-20T04:27:36;-0.60;1.00
7822;DHT22;3956;50.558;9.678;2022-11-20T04:30:07;-0.50;1.00
7822;DHT22;3956;50.558;9.678;2022-11-20T04:32:36;-0.50;1.00
7822;DHT22;3956;50.558;9.678;2022-11-20T04:35:05;-0.60;1.00
7822;DHT22;3956;50.558;9.678;2022-11-20T04:37:37;-0.60;1.00
7822;DHT22;3956;50.558;9.678;2022-11-20T04:40:13;-0.70;1.00
7822;DHT22;3956;50.558;9.678;2022-11-20T04:42:43;-0.70;1.00
7822;DHT22;3956;50.558;9.678;2022-11-20T04:45:12;-0.50;1.00
7822;DHT22;3956;50.558;9.678;2022-11-20T04:47:41;-0.60;1.00
7822;DHT22;3956;50.558;9.678;2022-11-20T04:50:12;-0.60;1.00
7822;DHT22;3956;50.558;9.678;2022-11-20T04:52:44;-0.50;1.00
7822;DHT22;3956;50.558;9.678;2022-11-20T04:55:13;-0.50;1.00
7822;DHT22;3956;50.558;9.678;2022-11-20T04:57:42;-0.60;1.00
7822;DHT22;3956;50.558;9.678;2022-11-20T05:00:19;-0.50;1.00
7822;DHT22;3956;50.558;9.678;2022-11-20T05:02:47;-0.40;1.00
7822;DHT22;3956;50.558;9.678;2022-11-20T05:05:17;-0.30;1.00
7822;DHT22;3956;50.558;9.678;2022-11-20T05:07:47;-0.40;1.00
7822;DHT22;3956;50.558;9.678;2022-11-20T05:10:16;-0.40;1.00
7822;DHT22;3956;50.558;9.678;2022-11-20T05:12:45;-0.50;1.00
7822;DHT22;3956;50.558;9.678;2022-11-20T05:15:18;-0.50;1.00
7822;DHT22;3956;50.558;9.678;2022-11-20T05:17:50;-0.50;1.00
7822;DHT22;3956;50.558;9.678;2022-11-20T05:20:26;-0.50;1.00
7822;DHT22;3956;50.558;9.678;2022-11-20T05:23:05;-0.40;1.00
7822;DHT22;3956;50.558;9.678;2022-11-20T05:25:34;-0.50;1.00
7822;DHT22;3956;50.558;9.678;2022-11-20T05:28:03;-0.50;1.00
7822;DHT22;3956;50.558;9.678;2022-11-20T05:30:32;-0.30;1.00
7822;DHT22;3956;50.558;9.678;2022-11-20T05:33:02;-0.40;1.00
7822;DHT22;3956;50.558;9.678;2022-11-20T05:35:32;-0.40;1.00
7822;DHT22;3956;50.558;9.678;2022-11-20T05:38:00;-0.40;1.00
7822;DHT22;3956;50.558;9.678;2022-11-20T05:40:30;-0.40;1.00
7822;DHT22;3956;50.558;9.678;2022-11-20T05:43:20;-0.30;1.00
7822;DHT22;3956;50.558;9.678;2022-11-20T05:46:09;-0.20;1.00
7822;DHT22;3956;50.558;9.678;2022-11-20T05:48:48;-0.30;1.00
7822;DHT22;3956;50.558;9.678;2022-11-20T05:51:32;-0.20;1.00
7822;DHT22;3956;50.558;9.678;2022-11-20T05:54:10;-0.10;1.00
7822;DHT22;3956;50.558;9.678;2022-11-20T05:57:02;-0.20;1.00
7822;DHT22;3956;50.558;9.678;2022-11-20T05:59:31;-0.20;1.00
7822;DHT22;3956;50.558;9.678;2022-11-20T06:02:00;-0.20;1.00
7822;DHT22;3956;50.558;9.678;2022-11-20T06:04:31;-0.10;1.00
7822;DHT22;3956;50.558;9.678;2022-11-20T06:06:59;-0.20;1.00
7822;DHT22;3956;50.558;9.678;2022-11-20T06:09:29;-0.20;1.00
7822;DHT22;3956;50.558;9.678;2022-11-20T06:12:11;-0.10;1.00
7822;DHT22;3956;50.558;9.678;2022-11-20T06:14:39;0.00;1.00
7822;DHT22;3956;50.558;9.678;2022-11-20T06:17:09;0.00;1.00
7822;DHT22;3956;50.558;9.678;2022-11-20T06:19:38;0.10;1.00
7822;DHT22;3956;50.558;9.678;2022-11-20T06:22:10;0.00;1.00
7822;DHT22;3956;50.558;9.678;2022-11-20T06:24:39;-0.20;1.00
7822;DHT22;3956;50.558;9.678;2022-11-20T06:27:12;-0.20;1.00
7822;DHT22;3956;50.558;9.678;2022-11-20T06:29:43;-0.10;1.00
7822;DHT22;3956;50.558;9.678;2022-11-20T06:32:12;-0.20;1.00
7822;DHT22;3956;50.558;9.678;2022-11-20T06:34:43;-0.20;1.00
7822;DHT22;3956;50.558;9.678;2022-11-20T06:37:16;-0.20;1.00
7822;DHT22;3956;50.558;9.678;2022-11-20T06:39:47;0.00;1.00
7822;DHT22;3956;50.558;9.678;2022-11-20T06:42:16;-0.10;1.00
7822;DHT22;3956;50.558;9.678;2022-11-20T06:44:46;-0.10;1.00
7822;DHT22;3956;50.558;9.678;2022-11-20T06:47:15;0.00;1.00
7822;DHT22;3956;50.558;9.678;2022-11-20T06:49:44;0.10;1.00
7822;DHT22;3956;50.558;9.678;2022-11-20T06:52:15;0.10;1.00
7822;DHT22;3956;50.558;9.678;2022-11-20T06:54:50;0.20;1.00
7822;DHT22;3956;50.558;9.678;2022-11-20T06:57:22;0.20;1.00
7822;DHT22;3956;50.558;9.678;2022-11-20T06:59:52;0.10;1.00
7822;DHT22;3956;50.558;9.678;2022-11-20T07:02:21;0.10;1.00
7822;DHT22;3956;50.558;9.678;2022-11-20T07:04:49;0.00;1.00
7822;DHT22;3956;50.558;9.678;2022-11-20T07:07:21;0.10;1.00
7822;DHT22;3956;50.558;9.678;2022-11-20T07:09:51;0.10;1.00
7822;DHT22;3956;50.558;9.678;2022-11-20T07:12:25;0.20;1.00
7822;DHT22;3956;50.558;9.678;2022-11-20T07:14:56;0.20;1.00
7822;DHT22;3956;50.558;9.678;2022-11-20T07:17:26;0.20;1.00
7822;DHT22;3956;50.558;9.678;2022-11-20T07:19:57;0.20;1.00
7822;DHT22;3956;50.558;9.678;2022-11-20T07:22:26;0.30;1.00
7822;DHT22;3956;50.558;9.678;2022-11-20T07:24:54;0.30;1.00
7822;DHT22;3956;50.558;9.678;2022-11-20T07:27:22;0.30;1.00
7822;DHT22;3956;50.558;9.678;2022-11-20T07:30:07;0.30;1.00
7822;DHT22;3956;50.558;9.678;2022-11-20T07:32:37;0.20;1.00
7822;DHT22;3956;50.558;9.678;2022-11-20T07:35:05;0.30;1.00
7822;DHT22;3956;50.558;9.678;2022-11-20T07:37:35;0.30;1.00
7822;DHT22;3956;50.558;9.678;2022-11-20T07:40:06;0.40;1.00
7822;DHT22;3956;50.558;9.678;2022-11-20T07:42:35;0.50;1.00
7822;DHT22;3956;50.558;9.678;2022-11-20T07:45:05;0.40;1.00
7822;DHT22;3956;50.558;9.678;2022-11-20T07:47:36;0.20;1.00
7822;DHT22;3956;50.558;9.678;2022-11-20T07:50:05;0.40;1.00
7822;DHT22;3956;50.558;9.678;2022-11-20T07:52:35;0.30;1.00
7822;DHT22;3956;50.558;9.678;2022-11-20T07:55:09;0.30;1.00
7822;DHT22;3956;50.558;9.678;2022-11-20T07:57:38;0.30;1.00
7822;DHT22;3956;50.558;9.678;2022-11-20T08:00:10;0.40;1.00
7822;DHT22;3956;50.558;9.678;2022-11-20T08:02:41;0.40;1.00
7822;DHT22;3956;50.558;9.678;2022-11-20T08:05:11;0.50;1.00
7822;DHT22;3956;50.558;9.678;2022-11-20T08:07:44;0.60;1.00
7822;DHT22;3956;50.558;9.678;2022-11-20T08:10:14;0.60;1.00
7822;DHT22;3956;50.558;9.678;2022-11-20T08:12:49;0.60;1.00
7822;DHT22;3956;50.558;9.678;2022-11-20T08:15:40;0.60;1.00
7822;DHT22;3956;50.558;9.678;2022-11-20T08:18:11;0.60;1.00
7822;DHT22;3956;50.558;9.678;2022-11-20T08:21:01;0.80;1.00
7822;DHT22;3956;50.558;9.678;2022-11-20T08:23:33;0.70;1.00
7822;DHT22;3956;50.558;9.678;2022-11-20T08:26:17;0.70;1.00
7822;DHT22;3956;50.558;9.678;2022-11-20T08:28:53;0.80;1.00
7822;DHT22;3956;50.558;9.678;2022-11-20T08:31:50;0.80;1.00
7822;DHT22;3956;50.558;9.678;2022-11-20T08:34:55;0.90;1.00
7822;DHT22;3956;50.558;9.678;2022-11-20T08:37:49;1.00;1.00
7822;DHT22;3956;50.558;9.678;2022-11-20T08:40:26;1.00;1.00
7822;DHT22;3956;50.558;9.678;2022-11-20T08:43:48;0.80;1.00
7822;DHT22;3956;50.558;9.678;2022-11-20T08:46:22;0.80;1.00
7822;DHT22;3956;50.558;9.678;2022-11-20T08:49:02;0.90;1.00
7822;DHT22;3956;50.558;9.678;2022-11-20T08:51:34;1.00;1.00
7822;DHT22;3956;50.558;9.678;2022-11-20T08:54:11;0.90;1.00
7822;DHT22;3956;50.558;9.678;2022-11-20T08:57:02;1.00;1.00
7822;DHT22;3956;50.558;9.678;2022-11-20T08:59:35;1.00;1.00
7822;DHT22;3956;50.558;9.678;2022-11-20T09:02:25;0.80;1.00
7822;DHT22;3956;50.558;9.678;2022-11-20T09:04:58;1.00;1.00
7822;DHT22;3956;50.558;9.678;2022-11-20T09:07:27;1.10;1.00
7822;DHT22;3956;50.558;9.678;2022-11-20T09:10:01;1.20;1.00
7822;DHT22;3956;50.558;9.678;2022-11-20T09:12:51;1.20;1.00
7822;DHT22;3956;50.558;9.678;2022-11-20T09:15:23;1.10;1.00
7822;DHT22;3956;50.558;9.678;2022-11-20T09:17:58;1.20;1.00
7822;DHT22;3956;50.558;9.678;2022-11-20T09:20:58;1.30;1.00
7822;DHT22;3956;50.558;9.678;2022-11-20T09:23:37;1.30;1.00
7822;DHT22;3956;50.558;9.678;2022-11-20T09:26:10;1.40;1.00
7822;DHT22;3956;50.558;9.678;2022-11-20T09:28:40;1.50;1.00
7822;DHT22;3956;50.558;9.678;2022-11-20T09:31:21;1.50;1.00
7822;DHT22;3956;50.558;9.678;2022-11-20T09:33:54;1.30;1.00
7822;DHT22;3956;50.558;9.678;2022-11-20T09:36:44;1.40;1.00
7822;DHT22;3956;50.558;9.678;2022-11-20T09:39:12;1.30;1.00
7822;DHT22;3956;50.558;9.678;2022-11-20T09:42:14;1.50;1.00
7822;DHT22;3956;50.558;9.678;2022-11-20T09:48:10;1.70;1.00
7822;DHT22;3956;50.558;9.678;2022-11-20T09:50:47;1.80;1.00
7822;DHT22;3956;50.558;9.678;2022-11-20T09:54:03;1.60;1.00
7822;DHT22;3956;50.558;9.678;2022-11-20T09:57:00;1.60;1.00
7822;DHT22;3956;50.558;9.678;2022-11-20T09:59:54;1.80;1.00
7822;DHT22;3956;50.558;9.678;2022-11-20T10:02:30;1.80;1.00
7822;DHT22;3956;50.558;9.678;2022-11-20T10:05:12;1.90;1.00
7822;DHT22;3956;50.558;9.678;2022-11-20T10:07:48;2.10;1.00
7822;DHT22;3956;50.558;9.678;2022-11-20T10:10:30;2.10;1.00
7822;DHT22;3956;50.558;9.678;2022-11-20T10:13:18;2.10;1.00
7822;DHT22;3956;50.558;9.678;2022-11-20T10:16:08;2.00;1.00
7822;DHT22;3956;50.558;9.678;2022-11-20T10:19:08;2.10;1.00
7822;DHT22;3956;50.558;9.678;2022-11-20T10:21:52;2.10;1.00
7822;DHT22;3956;50.558;9.678;2022-11-20T10:24:52;2.10;1.00
7822;DHT22;3956;50.558;9.678;2022-11-20T10:31:08;2.30;1.00
7822;DHT22;3956;50.558;9.678;2022-11-20T10:33:40;2.30;1.00
7822;DHT22;3956;50.558;9.678;2022-11-20T10:36:34;2.40;1.00
7822;DHT22;3956;50.558;9.678;2022-11-20T10:39:21;2.30;1.00
7822;DHT22;3956;50.558;9.678;2022-11-20T10:41:58;2.40;1.00
7822;DHT22;3956;50.558;9.678;2022-11-20T10:44:57;2.60;1.00
7822;DHT22;3956;50.558;9.678;2022-11-20T10:47:35;2.80;1.00
7822;DHT22;3956;50.558;9.678;2022-11-20T10:50:09;2.70;1.00
7822;DHT22;3956;50.558;9.678;2022-11-20T10:52:55;2.80;1.00
7822;DHT22;3956;50.558;9.678;2022-11-20T10:55:32;2.70;1.00
7822;DHT22;3956;50.558;9.678;2022-11-20T10:58:14;2.80;1.00
7822;DHT22;3956;50.558;9.678;2022-11-20T11:00:47;2.90;1.00
7822;DHT22;3956;50.558;9.678;2022-11-20T11:03:23;2.60;1.00
7822;DHT22;3956;50.558;9.678;2022-11-20T11:06:01;2.40;1.00
7822;DHT22;3956;50.558;9.678;2022-11-20T11:08:38;2.50;1.00
7822;DHT22;3956;50.558;9.678;2022-11-20T11:11:21;2.60;1.00
7822;DHT22;3956;50.558;9.678;2022-11-20T11:14:17;2.40;1.00
7822;DHT22;3956;50.558;9.678;2022-11-20T11:17:26;2.40;1.00
7822;DHT22;3956;50.558;9.678;2022-11-20T11:20:27;2.20;1.00
7822;DHT22;3956;50.558;9.678;2022-11-20T11:23:00;2.20;1.00
7822;DHT22;3956;50.558;9.678;2022-11-20T11:25:31;2.20;1.00
7822;DHT22;3956;50.558;9.678;2022-11-20T11:28:22;2.30;1.00
7822;DHT22;3956;50.558;9.678;2022-11-20T11:31:08;2.30;1.00
7822;DHT22;3956;50.558;9.678;2022-11-20T11:33:39;2.40;1.00
7822;DHT22;3956;50.558;9.678;2022-11-20T11:36:21;2.50;1.00
7822;DHT22;3956;50.558;9.678;2022-11-20T11:38:53;2.30;1.00
7822;DHT22;3956;50.558;9.678;2022-11-20T11:41:28;2.50;1.00
7822;DHT22;3956;50.558;9.678;2022-11-20T11:44:21;2.10;1.00
7822;DHT22;3956;50.558;9.678;2022-11-20T11:47:22;2.30;1.00
7822;DHT22;3956;50.558;9.678;2022-11-20T11:50:02;2.40;1.00
7822;DHT22;3956;50.558;9.678;2022-11-20T11:52:41;2.20;1.00
7822;DHT22;3956;50.558;9.678;2022-11-20T11:55:17;2.20;1.00
7822;DHT22;3956;50.558;9.678;2022-11-20T11:57:54;2.20;1.00
7822;DHT22;3956;50.558;9.678;2022-11-20T12:00:28;2.10;1.00
7822;DHT22;3956;50.558;9.678;2022-11-20T12:03:11;2.20;1.00
7822;DHT22;3956;50.558;9.678;2022-11-20T12:05:49;2.40;1.00
7822;DHT22;3956;50.558;9.678;2022-11-20T12:08:53;2.20;1.00
7822;DHT22;3956;50.558;9.678;2022-11-20T12:11:34;2.10;1.00
7822;DHT22;3956;50.558;9.678;2022-11-20T12:14:34;2.30;1.00
7822;DHT22;3956;50.558;9.678;2022-11-20T12:17:17;2.50;1.00
7822;DHT22;3956;50.558;9.678;2022-11-20T12:19:45;2.60;1.00
7822;DHT22;3956;50.558;9.678;2022-11-20T12:22:25;2.60;1.00
7822;DHT22;3956;50.558;9.678;2022-11-20T12:25:04;2.40;1.00
7822;DHT22;3956;50.558;9.678;2022-11-20T12:30:52;2.60;1.00
7822;DHT22;3956;50.558;9.678;2022-11-20T12:33:45;2.60;1.00
7822;DHT22;3956;50.558;9.678;2022-11-20T12:36:23;2.60;1.00
7822;DHT22;3956;50.558;9.678;2022-11-20T12:39:40;2.70;1.00
7822;DHT22;3956;50.558;9.678;2022-11-20T12:42:55;2.70;1.00
7822;DHT22;3956;50.558;9.678;2022-11-20T12:46:08;2.80;1.00
7822;DHT22;3956;50.558;9.678;2022-11-20T12:55:00;2.60;1.00
7822;DHT22;3956;50.558;9.678;2022-11-20T12:57:44;2.70;1.00
7822;DHT22;3956;50.558;9.678;2022-11-20T13:01:07;2.60;1.00
7822;DHT22;3956;50.558;9.678;2022-11-20T13:07:28;2.50;1.00
7822;DHT22;3956;50.558;9.678;2022-11-20T13:10:10;2.40;1.00
7822;DHT22;3956;50.558;9.678;2022-11-20T13:13:11;2.30;1.00
7822;DHT22;3956;50.558;9.678;2022-11-20T13:15:54;2.30;1.00
7822;DHT22;3956;50.558;9.678;2022-11-20T13:19:09;2.30;1.00
7822;DHT22;3956;50.558;9.678;2022-11-20T13:21:55;2.30;1.00
7822;DHT22;3956;50.558;9.678;2022-11-20T13:24:30;2.30;1.00
7822;DHT22;3956;50.558;9.678;2022-11-20T13:27:16;2.20;1.00
7822;DHT22;3956;50.558;9.678;2022-11-20T13:30:13;2.30;1.00
7822;DHT22;3956;50.558;9.678;2022-11-20T13:33:27;2.40;1.00
7822;DHT22;3956;50.558;9.678;2022-11-20T13:36:34;2.40;1.00
7822;DHT22;3956;50.558;9.678;2022-11-20T13:39:05;2.20;1.00
7822;DHT22;3956;50.558;9.678;2022-11-20T13:41:37;2.30;1.00
7822;DHT22;3956;50.558;9.678;2022-11-20T13:44:15;2.20;1.00
7822;DHT22;3956;50.558;9.678;2022-11-20T13:49:38;2.40;1.00
7822;DHT22;3956;50.558;9.678;2022-11-20T13:52:42;2.30;1.00
7822;DHT22;3956;50.558;9.678;2022-11-20T13:55:31;2.30;1.00
7822;DHT22;3956;50.558;9.678;2022-11-20T13:58:21;2.40;1.00
7822;DHT22;3956;50.558;9.678;2022-11-20T14:01:08;2.30;1.00
7822;DHT22;3956;50.558;9.678;2022-11-20T14:03:42;2.40;1.00
7822;DHT22;3956;50.558;9.678;2022-11-20T14:06:38;2.30;1.00
7822;DHT22;3956;50.558;9.678;2022-11-20T14:09:30;2.30;1.00
7822;DHT22;3956;50.558;9.678;2022-11-20T14:12:16;2.40;1.00
7822;DHT22;3956;50.558;9.678;2022-11-20T14:14:55;2.40;1.00
7822;DHT22;3956;50.558;9.678;2022-11-20T14:17:29;2.30;1.00
7822;DHT22;3956;50.558;9.678;2022-11-20T14:19:59;2.30;1.00
7822;DHT22;3956;50.558;9.678;2022-11-20T14:22:35;2.30;1.00
7822;DHT22;3956;50.558;9.678;2022-11-20T14:25:24;2.40;1.00
7822;DHT22;3956;50.558;9.678;2022-11-20T14:30:51;2.40;1.00
7822;DHT22;3956;50.558;9.678;2022-11-20T14:33:49;2.50;1.00
7822;DHT22;3956;50.558;9.678;2022-11-20T14:36:29;2.50;1.00
7822;DHT22;3956;50.558;9.678;2022-11-20T14:39:20;2.50;1.00
7822;DHT22;3956;50.558;9.678;2022-11-20T14:41:53;2.40;1.00
7822;DHT22;3956;50.558;9.678;2022-11-20T14:44:26;2.50;1.00
7822;DHT22;3956;50.558;9.678;2022-11-20T14:46:56;2.50;1.00
7822;DHT22;3956;50.558;9.678;2022-11-20T14:49:45;2.50;1.00
7822;DHT22;3956;50.558;9.678;2022-11-20T14:52:23;2.40;1.00
7822;DHT22;3956;50.558;9.678;2022-11-20T14:54:54;2.50;1.00
7822;DHT22;3956;50.558;9.678;2022-11-20T14:57:35;2.50;1.00
7822;DHT22;3956;50.558;9.678;2022-11-20T15:00:52;2.50;1.00
7822;DHT22;3956;50.558;9.678;2022-11-20T15:03:42;2.50;1.00
7822;DHT22;3956;50.558;9.678;2022-11-20T15:06:27;2.60;1.00
7822;DHT22;3956;50.558;9.678;2022-11-20T15:09:16;2.70;1.00
7822;DHT22;3956;50.558;9.678;2022-11-20T15:12:22;2.60;1.00
7822;DHT22;3956;50.558;9.678;2022-11-20T15:15:59;2.40;1.00
7822;DHT22;3956;50.558;9.678;2022-11-20T15:18:54;2.50;1.00
7822;DHT22;3956;50.558;9.678;2022-11-20T15:21:36;2.60;1.00
7822;DHT22;3956;50.558;9.678;2022-11-20T15:24:26;2.60;1.00
7822;DHT22;3956;50.558;9.678;2022-11-20T15:27:05;2.50;1.00
7822;DHT22;3956;50.558;9.678;2022-11-20T15:29:45;2.50;1.00
7822;DHT22;3956;50.558;9.678;2022-11-20T15:32:33;2.50;1.00
7822;DHT22;3956;50.558;9.678;2022-11-20T15:35:09;2.50;1.00
7822;DHT22;3956;50.558;9.678;2022-11-20T15:37:51;2.50;1.00
7822;DHT22;3956;50.558;9.678;2022-11-20T15:40:42;2.30;1.00
7822;DHT22;3956;50.558;9.678;2022-11-20T15:43:11;2.10;1.00
7822;DHT22;3956;50.558;9.678;2022-11-20T15:45:41;2.00;1.00
7822;DHT22;3956;50.558;9.678;2022-11-20T15:48:20;1.90;1.00
7822;DHT22;3956;50.558;9.678;2022-11-20T15:51:02;1.90;1.00
7822;DHT22;3956;50.558;9.678;2022-11-20T15:53:44;1.90;1.00
7822;DHT22;3956;50.558;9.678;2022-11-20T15:56:31;2.00;1.00
7822;DHT22;3956;50.558;9.678;2022-11-20T15:59:01;2.00;1.00
7822;DHT22;3956;50.558;9.678;2022-11-20T16:01:34;2.10;1.00
7822;DHT22;3956;50.558;9.678;2022-11-20T16:04:14;2.10;1.00
7822;DHT22;3956;50.558;9.678;2022-11-20T16:06:46;2.20;1.00
7822;DHT22;3956;50.558;9.678;2022-11-20T16:09:16;2.20;1.00
7822;DHT22;3956;50.558;9.678;2022-11-20T16:11:50;2.20;1.00
7822;DHT22;3956;50.558;9.678;2022-11-20T16:14:23;2.20;1.00
7822;DHT22;3956;50.558;9.678;2022-11-20T16:17:15;2.30;1.00
7822;DHT22;3956;50.558;9.678;2022-11-20T16:20:11;2.30;1.00
7822;DHT22;3956;50.558;9.678;2022-11-20T16:22:42;2.30;1.00
7822;DHT22;3956;50.558;9.678;2022-11-20T16:25:13;2.20;1.00
7822;DHT22;3956;50.558;9.678;2022-11-20T16:27:44;2.20;1.00
7822;DHT22;3956;50.558;9.678;2022-11-20T16:30:12;2.20;1.00
7822;DHT22;3956;50.558;9.678;2022-11-20T16:32:43;2.20;1.00
7822;DHT22;3956;50.558;9.678;2022-11-20T16:39:01;2.20;1.00
7822;DHT22;3956;50.558;9.678;2022-11-20T16:41:47;2.30;1.00
7822;DHT22;3956;50.558;9.678;2022-11-20T16:44:18;2.30;1.00
7822;DHT22;3956;50.558;9.678;2022-11-20T16:46:55;2.40;1.00
7822;DHT22;3956;50.558;9.678;2022-11-20T16:49:31;2.30;1.00
7822;DHT22;3956;50.558;9.678;2022-11-20T16:52:03;2.20;1.00
7822;DHT22;3956;50.558;9.678;2022-11-20T16:54:33;2.30;1.00
7822;DHT22;3956;50.558;9.678;2022-11-20T16:57:11;2.30;1.00
7822;DHT22;3956;50.558;9.678;2022-11-20T16:59:43;2.40;1.00
7822;DHT22;3956;50.558;9.678;2022-11-20T17:02:45;2.40;1.00
7822;DHT22;3956;50.558;9.678;2022-11-20T17:05:34;2.50;1.00
7822;DHT22;3956;50.558;9.678;2022-11-20T17:08:03;2.50;1.00
7822;DHT22;3956;50.558;9.678;2022-11-20T17:10:33;2.60;1.00
7822;DHT22;3956;50.558;9.678;2022-11-20T17:13:03;2.40;1.00
7822;DHT22;3956;50.558;9.678;2022-11-20T17:15:33;2.50;1.00
7822;DHT22;3956;50.558;9.678;2022-11-20T17:18:02;2.40;1.00
7822;DHT22;3956;50.558;9.678;2022-11-20T17:20:34;2.40;1.00
7822;DHT22;3956;50.558;9.678;2022-11-20T17:23:02;2.50;1.00
7822;DHT22;3956;50.558;9.678;2022-11-20T17:25:33;2.60;1.00
7822;DHT22;3956;50.558;9.678;2022-11-20T17:28:05;2.50;1.00
7822;DHT22;3956;50.558;9.678;2022-11-20T17:30:36;2.50;1.00
7822;DHT22;3956;50.558;9.678;2022-11-20T17:33:04;2.50;1.00
7822;DHT22;3956;50.558;9.678;2022-11-20T17:35:35;2.50;1.00
7822;DHT22;3956;50.558;9.678;2022-11-20T17:38:07;2.40;1.00
7822;DHT22;3956;50.558;9.678;2022-11-20T17:40:40;2.40;1.00
7822;DHT22;3956;50.558;9.678;2022-11-20T17:43:12;2.40;1.00
7822;DHT22;3956;50.558;9.678;2022-11-20T17:45:41;2.50;1.00
7822;DHT22;3956;50.558;9.678;2022-11-20T17:48:10;2.50;1.00
7822;DHT22;3956;50.558;9.678;2022-11-20T17:50:42;2.40;1.00
7822;DHT22;3956;50.558;9.678;2022-11-20T17:53:12;2.40;1.00
7822;DHT22;3956;50.558;9.678;2022-11-20T17:56:09;2.50;1.00
7822;DHT22;3956;50.558;9.678;2022-11-20T17:59:25;2.50;1.00
7822;DHT22;3956;50.558;9.678;2022-11-20T18:02:26;2.50;1.00
7822;DHT22;3956;50.558;9.678;2022-11-20T18:05:14;2.40;1.00